地図

経路データ

SID SEASON NUMBER BASIN SUBBASIN NAME ISO_TIME NATURE LAT LON WMO_WIND WMO_PRES WMO_AGENCY TRACK_TYPE DIST2LAND LANDFALL IFLAG USA_AGENCY USA_ATCF_ID USA_LAT USA_LON USA_RECORD USA_STATUS USA_WIND USA_PRES USA_SSHS USA_R34_NE USA_R34_SE USA_R34_SW USA_R34_NW USA_R50_NE USA_R50_SE USA_R50_SW USA_R50_NW USA_R64_NE USA_R64_SE USA_R64_SW USA_R64_NW USA_POCI USA_ROCI USA_RMW USA_EYE TOKYO_LAT TOKYO_LON TOKYO_GRADE TOKYO_WIND TOKYO_PRES TOKYO_R50_DIR TOKYO_R50_LONG TOKYO_R50_SHORT TOKYO_R30_DIR TOKYO_R30_LONG TOKYO_R30_SHORT TOKYO_LAND CMA_LAT CMA_LON CMA_CAT CMA_WIND CMA_PRES HKO_LAT HKO_LON HKO_CAT HKO_WIND HKO_PRES NEWDELHI_LAT NEWDELHI_LON NEWDELHI_GRADE NEWDELHI_WIND NEWDELHI_PRES NEWDELHI_CI NEWDELHI_DP NEWDELHI_POCI REUNION_LAT REUNION_LON REUNION_TYPE REUNION_WIND REUNION_PRES REUNION_TNUM REUNION_CI REUNION_RMW REUNION_R34_NE REUNION_R34_SE REUNION_R34_SW REUNION_R34_NW REUNION_R50_NE REUNION_R50_SE REUNION_R50_SW REUNION_R50_NW REUNION_R64_NE REUNION_R64_SE REUNION_R64_SW REUNION_R64_NW BOM_LAT BOM_LON BOM_TYPE BOM_WIND BOM_PRES BOM_TNUM BOM_CI BOM_RMW BOM_R34_NE BOM_R34_SE BOM_R34_SW BOM_R34_NW BOM_R50_NE BOM_R50_SE BOM_R50_SW BOM_R50_NW BOM_R64_NE BOM_R64_SE BOM_R64_SW BOM_R64_NW BOM_ROCI BOM_POCI BOM_EYE BOM_POS_METHOD BOM_PRES_METHOD NADI_LAT NADI_LON NADI_CAT NADI_WIND NADI_PRES WELLINGTON_LAT WELLINGTON_LON WELLINGTON_WIND WELLINGTON_PRES DS824_LAT DS824_LON DS824_STAGE DS824_WIND DS824_PRES TD9636_LAT TD9636_LON TD9636_STAGE TD9636_WIND TD9636_PRES TD9635_LAT TD9635_LON TD9635_WIND TD9635_PRES TD9635_ROCI NEUMANN_LAT NEUMANN_LON NEUMANN_CLASS NEUMANN_WIND NEUMANN_PRES MLC_LAT MLC_LON MLC_CLASS MLC_WIND MLC_PRES USA_GUST BOM_GUST BOM_GUST_PER REUNION_GUST REUNION_GUST_PER USA_SEAHGT USA_SEARAD_NE USA_SEARAD_SE USA_SEARAD_SW USA_SEARAD_NW STORM_SPEED STORM_DIR
1942052S17054 1942 10 SI MM NOT_NAMED 1942-02-21 06:00:00 NR -16.7000 53.6000 reunion main 361 356 _____O________ -1 -16.7000 53.6000 99 9.90000 3 216
1942052S17054 1942 10 SI MM NOT_NAMED 1942-02-21 09:00:00 NR -16.8361 53.4951 main 356 351 _____P________ -1 -16.8361 53.4951 99 3 217
1942052S17054 1942 10 SI MM NOT_NAMED 1942-02-21 12:00:00 NR -16.9736 53.3895 main 356 346 _____P________ -1 -16.9736 53.3895 99 3 216
1942052S17054 1942 10 SI MM NOT_NAMED 1942-02-21 15:00:00 NR -17.1136 53.2823 main 351 346 _____P________ -1 -17.1136 53.2823 99 4 216
1942052S17054 1942 10 SI MM NOT_NAMED 1942-02-21 18:00:00 NR -17.2577 53.1729 main 351 341 _____P________ -1 -17.2577 53.1729 99 4 216
1942052S17054 1942 10 SI MM NOT_NAMED 1942-02-21 21:00:00 NR -17.4070 53.0607 main 346 336 _____P________ -1 -17.4070 53.0607 99 4 216
1942052S17054 1942 10 SI MM NOT_NAMED 1942-02-22 00:00:00 NR -17.5629 52.9450 main 338 334 _____P________ -1 -17.5629 52.9450 99 4 215
1942052S17054 1942 10 SI MM NOT_NAMED 1942-02-22 03:00:00 NR -17.7268 52.8250 main 334 327 _____P________ -1 -17.7268 52.8250 99 4 215
1942052S17054 1942 10 SI MM NOT_NAMED 1942-02-22 06:00:00 NR -17.9000 52.7000 reunion main 331 326 _____O________ -1 -17.9000 52.7000 99 9.90000 4 214
1942052S17054 1942 10 SI MM NOT_NAMED 1942-02-22 09:00:00 NR -18.0835 52.5695 main 330 313 _____P________ -1 -18.0835 52.5695 99 5 214
1942052S17054 1942 10 SI MM NOT_NAMED 1942-02-22 12:00:00 NR -18.2768 52.4333 main 313 306 _____P________ -1 -18.2768 52.4333 99 5 214
1942052S17054 1942 10 SI MM NOT_NAMED 1942-02-22 15:00:00 NR -18.4792 52.2916 main 307 297 _____P________ -1 -18.4792 52.2916 99 5 214
1942052S17054 1942 10 SI MM NOT_NAMED 1942-02-22 18:00:00 NR -18.6898 52.1443 main 290 282 _____P________ -1 -18.6898 52.1443 99 5 214
1942052S17054 1942 10 SI MM NOT_NAMED 1942-02-22 21:00:00 NR -18.9080 51.9914 main 285 272 _____P________ -1 -18.9080 51.9914 99 5 213
1942052S17054 1942 10 SI MM NOT_NAMED 1942-02-23 00:00:00 NR -19.1330 51.8331 main 272 271 _____P________ -1 -19.1330 51.8331 99 6 214
1942052S17054 1942 10 SI MM NOT_NAMED 1942-02-23 03:00:00 NR -19.3639 51.6693 main 274 257 _____P________ -1 -19.3639 51.6693 99 6 214
1942052S17054 1942 10 SI MM NOT_NAMED 1942-02-23 06:00:00 NR -19.6000 51.5000 reunion main 260 247 _____O________ -1 -19.6000 51.5000 99 9.90000 5 215
1942052S17054 1942 10 SI MM NOT_NAMED 1942-02-23 09:00:00 NR -19.8072 51.3368 main 247 242 _____P________ -1 -19.8072 51.3368 99 5 217
1942052S17054 1942 10 SI MM NOT_NAMED 1942-02-23 12:00:00 NR -20.0173 51.1686 main 246 230 _____P________ -1 -20.0173 51.1686 99 5 217
1942052S17054 1942 10 SI MM NOT_NAMED 1942-02-23 15:00:00 NR -20.2348 50.9946 main 230 213 _____P________ -1 -20.2348 50.9946 99 6 217
1942052S17054 1942 10 SI MM NOT_NAMED 1942-02-23 18:00:00 NR -20.4646 50.8137 main 215 203 _____P________ -1 -20.4646 50.8137 99 6 216
1942052S17054 1942 10 SI MM NOT_NAMED 1942-02-23 21:00:00 NR -20.7113 50.6249 main 203 193 _____P________ -1 -20.7113 50.6249 99 6 215
1942052S17054 1942 10 SI MM NOT_NAMED 1942-02-24 00:00:00 NR -20.9796 50.4271 main 198 188 _____P________ -1 -20.9796 50.4271 99 7 214
1942052S17054 1942 10 SI MM NOT_NAMED 1942-02-24 03:00:00 NR -21.2743 50.2192 main 189 174 _____P________ -1 -21.2743 50.2192 99 7 213
1942052S17054 1942 10 SI MM NOT_NAMED 1942-02-24 06:00:00 NR -21.6000 50.0000 reunion main 177 156 _____O________ -1 -21.6000 50.0000 99 9.90000 9 212
1942052S17054 1942 10 SI MM NOT_NAMED 1942-02-24 09:00:00 NR -22.0086 49.7284 main 156 145 _____P________ -1 -22.0086 49.7284 99 10 211
1942052S17054 1942 10 SI MM NOT_NAMED 1942-02-24 12:00:00 NR -22.4538 49.4389 main 144 137 _____P________ -1 -22.4538 49.4389 99 11 211
1942052S17054 1942 10 SI MM NOT_NAMED 1942-02-24 15:00:00 NR -22.9214 49.1416 main 130 117 _____P________ -1 -22.9214 49.1416 99 11 210
1942052S17054 1942 10 SI MM NOT_NAMED 1942-02-24 18:00:00 NR -23.3972 48.8464 main 112 97 _____P________ -1 -23.3972 48.8464 99 11 209
1942052S17054 1942 10 SI MM NOT_NAMED 1942-02-24 21:00:00 NR -23.8669 48.5638 main 107 84 _____P________ -1 -23.8669 48.5638 99 10 208
1942052S17054 1942 10 SI MM NOT_NAMED 1942-02-25 00:00:00 NR -24.3166 48.3046 main 87 81 _____P________ -1 -24.3166 48.3046 99 10 207
1942052S17054 1942 10 SI MM NOT_NAMED 1942-02-25 03:00:00 NR -24.7323 48.0796 main 83 78 _____P________ -1 -24.7323 48.0796 99 9 205
1942052S17054 1942 10 SI MM NOT_NAMED 1942-02-25 06:00:00 NR -25.1000 47.9000 reunion main 81 69 _____O________ -1 -25.1000 47.9000 99 9.90000 7 206
1942052S17054 1942 10 SI MM NOT_NAMED 1942-02-25 09:00:00 NR -25.3520 47.7422 main 75 75 _____P________ -1 -25.3520 47.7422 99 5 209
1942052S17054 1942 10 SI MM NOT_NAMED 1942-02-25 12:00:00 NR -25.5574 47.6224 main 82 82 _____P________ -1 -25.5574 47.6224 99 4 205
1942052S17054 1942 10 SI MM NOT_NAMED 1942-02-25 15:00:00 NR -25.7288 47.5443 main 83 83 _____P________ -1 -25.7288 47.5443 99 3 197
1942052S17054 1942 10 SI MM NOT_NAMED 1942-02-25 18:00:00 NR -25.8782 47.5113 main 102 102 _____P________ -1 -25.8782 47.5113 99 3 0
1942052S17054 1942 10 SI MM NOT_NAMED 1942-02-25 21:00:00 NR -26.0178 47.5269 main 112 112 _____P________ -1 -26.0178 47.5269 99 3 164
1942052S17054 1942 10 SI MM NOT_NAMED 1942-02-26 00:00:00 NR -26.1600 47.5945 main 136 136 _____P________ -1 -26.1600 47.5945 99 3 150
1942052S17054 1942 10 SI MM NOT_NAMED 1942-02-26 03:00:00 NR -26.3167 47.7177 main 151 151 _____P________ -1 -26.3167 47.7177 99 4 141
1942052S17054 1942 10 SI MM NOT_NAMED 1942-02-26 06:00:00 NR -26.5000 47.9000 reunion main 180 180 _____O________ -1 -26.5000 47.9000 99 9.90000 6 139
1942052S17054 1942 10 SI MM NOT_NAMED 1942-02-26 09:00:00 NR -26.7941 48.1728 main 224 224 _____P________ -1 -26.7941 48.1728 99 8 138
1942052S17054 1942 10 SI MM NOT_NAMED 1942-02-26 12:00:00 NR -27.1139 48.5157 main 268 268 _____P________ -1 -27.1139 48.5157 99 9 135
1942052S17054 1942 10 SI MM NOT_NAMED 1942-02-26 15:00:00 NR -27.4473 48.9106 main 319 319 _____P________ -1 -27.4473 48.9106 99 10 132
1942052S17054 1942 10 SI MM NOT_NAMED 1942-02-26 18:00:00 NR -27.7821 49.3388 main 378 378 _____P________ -1 -27.7821 49.3388 99 10 131
1942052S17054 1942 10 SI MM NOT_NAMED 1942-02-26 21:00:00 NR -28.1063 49.7814 main 435 435 _____P________ -1 -28.1063 49.7814 99 10 129
1942052S17054 1942 10 SI MM NOT_NAMED 1942-02-27 00:00:00 NR -28.4083 50.2191 main 486 486 _____P________ -1 -28.4083 50.2191 99 9 127
1942052S17054 1942 10 SI MM NOT_NAMED 1942-02-27 03:00:00 NR -28.6766 50.6320 main 537 537 _____P________ -1 -28.6766 50.6320 99 8 126
1942052S17054 1942 10 SI MM NOT_NAMED 1942-02-27 06:00:00 NR -28.9000 51.0000 reunion main 580 580 _____O________ -1 -28.9000 51.0000 99 9.90000 7 124
1942052S17054 1942 10 SI MM NOT_NAMED 1942-02-27 09:00:00 NR -29.0706 51.3075 main 616 616 _____P________ -1 -29.0706 51.3075 99 6 121
1942052S17054 1942 10 SI MM NOT_NAMED 1942-02-27 12:00:00 NR -29.1927 51.5575 main 645 645 _____P________ -1 -29.1927 51.5575 99 4 117
1942052S17054 1942 10 SI MM NOT_NAMED 1942-02-27 15:00:00 NR -29.2734 51.7577 main 666 666 _____P________ -1 -29.2734 51.7577 99 3 112
1942052S17054 1942 10 SI MM NOT_NAMED 1942-02-27 18:00:00 NR -29.3197 51.9164 main 673 673 _____P________ -1 -29.3197 51.9164 99 3 105
1942052S17054 1942 10 SI MM NOT_NAMED 1942-02-27 21:00:00 NR -29.3387 52.0417 main 681 681 _____P________ -1 -29.3387 52.0417 99 2 95
1942052S17054 1942 10 SI MM NOT_NAMED 1942-02-28 00:00:00 NR -29.3372 52.1418 main 688 688 _____P________ -1 -29.3372 52.1418 99 2 84
1942052S17054 1942 10 SI MM NOT_NAMED 1942-02-28 03:00:00 NR -29.3220 52.2251 main 695 695 _____P________ -1 -29.3220 52.2251 99 1 75
1942052S17054 1942 10 SI MM NOT_NAMED 1942-02-28 06:00:00 NR -29.3000 52.3000 reunion main 702 _____O________ -1 -29.3000 52.3000 99 9.90000 1 71

IBTrACS Databaseについて

本データベースは、米国NOAAが公開する1842年以降の世界の熱帯低気圧のベストトラックデータアーカイブInternational Best Track Archive for Climate Stewardship (IBTrACS)を、ウェブで閲覧しやすい形式に変換したものです。

最終更新日:2021-10-08